sensor_id;sensor_type;location;lat;lon;timestamp;temperature;humidity
12115;DHT22;6121;49.810;6.418;2023-04-24T00:00:28;10.90;99.90
12115;DHT22;6121;49.810;6.418;2023-04-24T00:02:55;10.70;99.90
12115;DHT22;6121;49.810;6.418;2023-04-24T00:05:22;10.80;99.90
12115;DHT22;6121;49.810;6.418;2023-04-24T00:07:48;10.80;99.90
12115;DHT22;6121;49.810;6.418;2023-04-24T00:10:14;10.80;99.90
12115;DHT22;6121;49.810;6.418;2023-04-24T00:12:41;10.60;99.90
12115;DHT22;6121;49.810;6.418;2023-04-24T00:15:08;10.70;99.90
12115;DHT22;6121;49.810;6.418;2023-04-24T00:17:34;10.70;99.90
12115;DHT22;6121;49.810;6.418;2023-04-24T00:20:00;10.80;99.90
12115;DHT22;6121;49.810;6.418;2023-04-24T00:22:32;10.80;99.90
12115;DHT22;6121;49.810;6.418;2023-04-24T00:24:58;10.90;99.90
12115;DHT22;6121;49.810;6.418;2023-04-24T00:27:24;10.80;99.90
12115;DHT22;6121;49.810;6.418;2023-04-24T00:29:50;10.90;99.90
12115;DHT22;6121;49.810;6.418;2023-04-24T00:32:16;10.90;99.90
12115;DHT22;6121;49.810;6.418;2023-04-24T00:34:43;10.70;99.90
12115;DHT22;6121;49.810;6.418;2023-04-24T00:37:09;10.70;99.90
12115;DHT22;6121;49.810;6.418;2023-04-24T00:39:36;10.70;99.90
12115;DHT22;6121;49.810;6.418;2023-04-24T00:42:02;10.50;99.90
12115;DHT22;6121;49.810;6.418;2023-04-24T00:44:28;10.40;99.90
12115;DHT22;6121;49.810;6.418;2023-04-24T00:46:54;10.40;99.90
12115;DHT22;6121;49.810;6.418;2023-04-24T00:49:21;10.50;99.90
12115;DHT22;6121;49.810;6.418;2023-04-24T00:51:47;10.50;99.90
12115;DHT22;6121;49.810;6.418;2023-04-24T00:54:15;10.40;99.90
12115;DHT22;6121;49.810;6.418;2023-04-24T00:56:41;9.80;99.90
12115;DHT22;6121;49.810;6.418;2023-04-24T00:59:08;10.30;99.90
12115;DHT22;6121;49.810;6.418;2023-04-24T01:01:35;10.30;99.90
12115;DHT22;6121;49.810;6.418;2023-04-24T01:04:01;10.30;99.90
12115;DHT22;6121;49.810;6.418;2023-04-24T01:06:28;10.20;99.90
12115;DHT22;6121;49.810;6.418;2023-04-24T01:08:57;10.30;99.90
12115;DHT22;6121;49.810;6.418;2023-04-24T01:11:25;10.20;99.90
12115;DHT22;6121;49.810;6.418;2023-04-24T01:13:51;10.10;99.90
12115;DHT22;6121;49.810;6.418;2023-04-24T01:16:18;10.10;99.90
12115;DHT22;6121;49.810;6.418;2023-04-24T01:18:46;10.10;99.90
12115;DHT22;6121;49.810;6.418;2023-04-24T01:21:14;9.90;99.90
12115;DHT22;6121;49.810;6.418;2023-04-24T01:23:43;10.10;99.90
12115;DHT22;6121;49.810;6.418;2023-04-24T01:26:09;10.00;99.90
12115;DHT22;6121;49.810;6.418;2023-04-24T01:28:37;9.80;99.90
12115;DHT22;6121;49.810;6.418;2023-04-24T01:31:05;9.50;99.90
12115;DHT22;6121;49.810;6.418;2023-04-24T01:33:31;9.40;99.90
12115;DHT22;6121;49.810;6.418;2023-04-24T01:35:57;9.30;99.90
12115;DHT22;6121;49.810;6.418;2023-04-24T01:38:23;9.60;99.90
12115;DHT22;6121;49.810;6.418;2023-04-24T01:40:49;9.40;99.90
12115;DHT22;6121;49.810;6.418;2023-04-24T01:43:19;9.40;99.90
12115;DHT22;6121;49.810;6.418;2023-04-24T01:45:45;9.50;99.90
12115;DHT22;6121;49.810;6.418;2023-04-24T01:48:12;9.50;99.90
12115;DHT22;6121;49.810;6.418;2023-04-24T01:50:39;9.30;99.90
12115;DHT22;6121;49.810;6.418;2023-04-24T01:53:06;9.10;99.90
12115;DHT22;6121;49.810;6.418;2023-04-24T01:55:31;9.30;99.90
12115;DHT22;6121;49.810;6.418;2023-04-24T01:57:59;9.50;99.90
12115;DHT22;6121;49.810;6.418;2023-04-24T02:00:25;9.40;99.90
12115;DHT22;6121;49.810;6.418;2023-04-24T02:02:52;9.30;99.90
12115;DHT22;6121;49.810;6.418;2023-04-24T02:05:18;9.40;99.90
12115;DHT22;6121;49.810;6.418;2023-04-24T02:07:45;9.20;99.90
12115;DHT22;6121;49.810;6.418;2023-04-24T02:10:11;9.10;99.90
12115;DHT22;6121;49.810;6.418;2023-04-24T02:12:41;9.00;99.90
12115;DHT22;6121;49.810;6.418;2023-04-24T02:15:07;8.90;99.90
12115;DHT22;6121;49.810;6.418;2023-04-24T02:17:36;9.10;99.90
12115;DHT22;6121;49.810;6.418;2023-04-24T02:20:04;8.70;99.90
12115;DHT22;6121;49.810;6.418;2023-04-24T02:22:31;8.60;99.90
12115;DHT22;6121;49.810;6.418;2023-04-24T02:24:57;8.50;99.90
12115;DHT22;6121;49.810;6.418;2023-04-24T02:27:22;8.70;99.90
12115;DHT22;6121;49.810;6.418;2023-04-24T02:29:48;8.60;99.90
12115;DHT22;6121;49.810;6.418;2023-04-24T02:32:14;8.80;99.90
12115;DHT22;6121;49.810;6.418;2023-04-24T02:34:43;9.00;99.90
12115;DHT22;6121;49.810;6.418;2023-04-24T02:37:09;8.80;99.90
12115;DHT22;6121;49.810;6.418;2023-04-24T02:39:36;8.90;99.90
12115;DHT22;6121;49.810;6.418;2023-04-24T02:42:01;8.90;99.90
12115;DHT22;6121;49.810;6.418;2023-04-24T02:44:28;8.80;99.90
12115;DHT22;6121;49.810;6.418;2023-04-24T02:46:54;8.80;99.90
12115;DHT22;6121;49.810;6.418;2023-04-24T02:49:20;8.90;99.90
12115;DHT22;6121;49.810;6.418;2023-04-24T02:51:46;8.90;99.90
12115;DHT22;6121;49.810;6.418;2023-04-24T02:54:11;8.90;99.90
12115;DHT22;6121;49.810;6.418;2023-04-24T02:56:37;8.80;99.90
12115;DHT22;6121;49.810;6.418;2023-04-24T02:59:05;8.70;99.90
12115;DHT22;6121;49.810;6.418;2023-04-24T03:01:31;8.80;99.90
12115;DHT22;6121;49.810;6.418;2023-04-24T03:03:57;8.70;99.90
12115;DHT22;6121;49.810;6.418;2023-04-24T03:06:23;8.60;99.90
12115;DHT22;6121;49.810;6.418;2023-04-24T03:08:49;8.70;99.90
12115;DHT22;6121;49.810;6.418;2023-04-24T03:11:15;8.70;99.90
12115;DHT22;6121;49.810;6.418;2023-04-24T03:13:41;8.70;99.90
12115;DHT22;6121;49.810;6.418;2023-04-24T03:16:07;8.80;99.90
12115;DHT22;6121;49.810;6.418;2023-04-24T03:18:32;8.80;99.90
12115;DHT22;6121;49.810;6.418;2023-04-24T03:20:58;8.70;99.90
12115;DHT22;6121;49.810;6.418;2023-04-24T03:23:25;8.70;99.90
12115;DHT22;6121;49.810;6.418;2023-04-24T03:25:51;8.70;99.90
12115;DHT22;6121;49.810;6.418;2023-04-24T03:28:18;8.70;99.90
12115;DHT22;6121;49.810;6.418;2023-04-24T03:30:51;8.60;99.90
12115;DHT22;6121;49.810;6.418;2023-04-24T03:33:18;8.60;99.90
12115;DHT22;6121;49.810;6.418;2023-04-24T03:35:54;8.70;99.90
12115;DHT22;6121;49.810;6.418;2023-04-24T03:38:21;8.70;99.90
12115;DHT22;6121;49.810;6.418;2023-04-24T03:40:47;8.60;99.90
12115;DHT22;6121;49.810;6.418;2023-04-24T03:43:33;8.60;99.90
12115;DHT22;6121;49.810;6.418;2023-04-24T03:46:00;8.60;99.90
12115;DHT22;6121;49.810;6.418;2023-04-24T03:48:26;8.70;99.90
12115;DHT22;6121;49.810;6.418;2023-04-24T03:50:52;8.60;99.90
12115;DHT22;6121;49.810;6.418;2023-04-24T03:53:20;8.60;99.90
12115;DHT22;6121;49.810;6.418;2023-04-24T03:55:46;8.70;99.90
12115;DHT22;6121;49.810;6.418;2023-04-24T03:58:13;8.80;99.90
12115;DHT22;6121;49.810;6.418;2023-04-24T04:00:40;8.70;99.90
12115;DHT22;6121;49.810;6.418;2023-04-24T04:03:36;8.60;99.90
12115;DHT22;6121;49.810;6.418;2023-04-24T04:06:02;8.60;99.90
12115;DHT22;6121;49.810;6.418;2023-04-24T04:08:28;8.70;99.90
12115;DHT22;6121;49.810;6.418;2023-04-24T04:10:55;8.70;99.90
12115;DHT22;6121;49.810;6.418;2023-04-24T04:13:22;8.80;99.90
12115;DHT22;6121;49.810;6.418;2023-04-24T04:15:48;8.70;99.90
12115;DHT22;6121;49.810;6.418;2023-04-24T04:18:16;8.50;99.90
12115;DHT22;6121;49.810;6.418;2023-04-24T04:20:41;8.50;99.90
12115;DHT22;6121;49.810;6.418;2023-04-24T04:23:08;8.60;99.90
12115;DHT22;6121;49.810;6.418;2023-04-24T04:25:48;8.70;99.90
12115;DHT22;6121;49.810;6.418;2023-04-24T04:28:15;8.80;99.90
12115;DHT22;6121;49.810;6.418;2023-04-24T04:30:41;8.90;99.90
12115;DHT22;6121;49.810;6.418;2023-04-24T04:33:08;8.60;99.90
12115;DHT22;6121;49.810;6.418;2023-04-24T04:35:34;8.50;99.90
12115;DHT22;6121;49.810;6.418;2023-04-24T04:38:00;8.50;99.90
12115;DHT22;6121;49.810;6.418;2023-04-24T04:40:26;8.50;99.90
12115;DHT22;6121;49.810;6.418;2023-04-24T04:42:58;8.50;99.90
12115;DHT22;6121;49.810;6.418;2023-04-24T04:45:27;8.50;99.90
12115;DHT22;6121;49.810;6.418;2023-04-24T04:48:14;8.50;99.90
12115;DHT22;6121;49.810;6.418;2023-04-24T04:50:40;8.50;99.90
12115;DHT22;6121;49.810;6.418;2023-04-24T04:53:07;8.70;99.90
12115;DHT22;6121;49.810;6.418;2023-04-24T04:55:37;8.60;99.90
12115;DHT22;6121;49.810;6.418;2023-04-24T04:58:25;8.70;99.90
12115;DHT22;6121;49.810;6.418;2023-04-24T05:00:55;8.70;99.90
12115;DHT22;6121;49.810;6.418;2023-04-24T05:03:32;8.60;99.90
12115;DHT22;6121;49.810;6.418;2023-04-24T05:06:03;8.70;99.90
12115;DHT22;6121;49.810;6.418;2023-04-24T05:08:34;8.60;99.90
12115;DHT22;6121;49.810;6.418;2023-04-24T05:11:01;8.60;99.90
12115;DHT22;6121;49.810;6.418;2023-04-24T05:13:28;8.80;99.90
12115;DHT22;6121;49.810;6.418;2023-04-24T05:15:55;8.60;99.90
12115;DHT22;6121;49.810;6.418;2023-04-24T05:18:20;8.70;99.90
12115;DHT22;6121;49.810;6.418;2023-04-24T05:20:47;8.80;99.90
12115;DHT22;6121;49.810;6.418;2023-04-24T05:23:13;9.00;99.90
12115;DHT22;6121;49.810;6.418;2023-04-24T05:25:41;9.10;99.90
12115;DHT22;6121;49.810;6.418;2023-04-24T05:28:11;9.30;99.90
12115;DHT22;6121;49.810;6.418;2023-04-24T05:30:37;9.10;99.90
12115;DHT22;6121;49.810;6.418;2023-04-24T05:33:03;9.20;99.90
12115;DHT22;6121;49.810;6.418;2023-04-24T05:35:30;9.10;99.90
12115;DHT22;6121;49.810;6.418;2023-04-24T05:37:56;9.20;99.90
12115;DHT22;6121;49.810;6.418;2023-04-24T05:40:22;9.10;99.90
12115;DHT22;6121;49.810;6.418;2023-04-24T05:42:48;9.10;99.90
12115;DHT22;6121;49.810;6.418;2023-04-24T05:45:14;9.30;99.90
12115;DHT22;6121;49.810;6.418;2023-04-24T05:47:43;9.20;99.90
12115;DHT22;6121;49.810;6.418;2023-04-24T05:50:12;9.10;99.90
12115;DHT22;6121;49.810;6.418;2023-04-24T05:52:37;9.20;99.90
12115;DHT22;6121;49.810;6.418;2023-04-24T05:55:12;9.10;99.90
12115;DHT22;6121;49.810;6.418;2023-04-24T05:57:39;9.10;99.90
12115;DHT22;6121;49.810;6.418;2023-04-24T06:00:06;9.20;99.90
12115;DHT22;6121;49.810;6.418;2023-04-24T06:02:49;9.10;99.90
12115;DHT22;6121;49.810;6.418;2023-04-24T06:05:15;9.10;99.90
12115;DHT22;6121;49.810;6.418;2023-04-24T06:07:41;9.10;99.90
12115;DHT22;6121;49.810;6.418;2023-04-24T06:10:08;9.10;99.90
12115;DHT22;6121;49.810;6.418;2023-04-24T06:12:40;9.20;99.90
12115;DHT22;6121;49.810;6.418;2023-04-24T06:15:12;9.10;99.90
12115;DHT22;6121;49.810;6.418;2023-04-24T06:18:04;9.10;99.90
12115;DHT22;6121;49.810;6.418;2023-04-24T06:20:30;9.20;99.90
12115;DHT22;6121;49.810;6.418;2023-04-24T06:22:56;9.30;99.90
12115;DHT22;6121;49.810;6.418;2023-04-24T06:25:24;9.40;99.90
12115;DHT22;6121;49.810;6.418;2023-04-24T06:27:50;9.30;99.90
12115;DHT22;6121;49.810;6.418;2023-04-24T06:30:16;9.50;99.90
12115;DHT22;6121;49.810;6.418;2023-04-24T06:32:41;9.50;99.90
12115;DHT22;6121;49.810;6.418;2023-04-24T06:35:08;9.70;99.90
12115;DHT22;6121;49.810;6.418;2023-04-24T06:37:35;9.60;99.90
12115;DHT22;6121;49.810;6.418;2023-04-24T06:40:02;9.70;99.90
12115;DHT22;6121;49.810;6.418;2023-04-24T06:42:31;9.60;99.90
12115;DHT22;6121;49.810;6.418;2023-04-24T06:44:57;9.60;99.90
12115;DHT22;6121;49.810;6.418;2023-04-24T06:47:23;9.80;99.90
12115;DHT22;6121;49.810;6.418;2023-04-24T06:49:48;9.80;99.90
12115;DHT22;6121;49.810;6.418;2023-04-24T06:52:16;9.80;99.90
12115;DHT22;6121;49.810;6.418;2023-04-24T06:54:42;9.70;99.90
12115;DHT22;6121;49.810;6.418;2023-04-24T06:57:08;9.70;99.90
12115;DHT22;6121;49.810;6.418;2023-04-24T06:59:34;9.70;99.90
12115;DHT22;6121;49.810;6.418;2023-04-24T07:02:00;9.80;99.90
12115;DHT22;6121;49.810;6.418;2023-04-24T07:04:26;9.90;99.90
12115;DHT22;6121;49.810;6.418;2023-04-24T07:06:52;10.10;99.90
12115;DHT22;6121;49.810;6.418;2023-04-24T07:09:19;10.10;99.90
12115;DHT22;6121;49.810;6.418;2023-04-24T07:11:46;10.10;99.90
12115;DHT22;6121;49.810;6.418;2023-04-24T07:14:12;10.20;99.90
12115;DHT22;6121;49.810;6.418;2023-04-24T07:16:38;10.30;99.90
12115;DHT22;6121;49.810;6.418;2023-04-24T07:19:04;10.10;99.90
12115;DHT22;6121;49.810;6.418;2023-04-24T07:21:30;10.10;99.90
12115;DHT22;6121;49.810;6.418;2023-04-24T07:23:58;10.30;99.90
12115;DHT22;6121;49.810;6.418;2023-04-24T07:26:27;10.20;99.90
12115;DHT22;6121;49.810;6.418;2023-04-24T07:28:54;10.20;99.90
12115;DHT22;6121;49.810;6.418;2023-04-24T07:31:20;10.10;99.90
12115;DHT22;6121;49.810;6.418;2023-04-24T07:33:47;10.10;99.90
12115;DHT22;6121;49.810;6.418;2023-04-24T07:36:13;10.10;99.90
12115;DHT22;6121;49.810;6.418;2023-04-24T07:38:42;10.20;99.90
12115;DHT22;6121;49.810;6.418;2023-04-24T07:41:08;10.50;99.90
12115;DHT22;6121;49.810;6.418;2023-04-24T07:43:35;10.40;99.90
12115;DHT22;6121;49.810;6.418;2023-04-24T07:46:01;10.30;99.90
12115;DHT22;6121;49.810;6.418;2023-04-24T07:48:27;10.50;99.90
12115;DHT22;6121;49.810;6.418;2023-04-24T07:50:53;10.40;99.90
12115;DHT22;6121;49.810;6.418;2023-04-24T07:53:19;10.30;99.90
12115;DHT22;6121;49.810;6.418;2023-04-24T07:55:45;10.30;99.90
12115;DHT22;6121;49.810;6.418;2023-04-24T07:58:11;10.20;99.90
12115;DHT22;6121;49.810;6.418;2023-04-24T08:00:37;10.10;99.90
12115;DHT22;6121;49.810;6.418;2023-04-24T08:03:03;10.10;99.90
12115;DHT22;6121;49.810;6.418;2023-04-24T08:05:29;10.00;99.90
12115;DHT22;6121;49.810;6.418;2023-04-24T08:07:55;9.80;99.90
12115;DHT22;6121;49.810;6.418;2023-04-24T08:10:22;9.80;99.90
12115;DHT22;6121;49.810;6.418;2023-04-24T08:12:48;9.80;99.90
12115;DHT22;6121;49.810;6.418;2023-04-24T08:15:14;9.90;99.90
12115;DHT22;6121;49.810;6.418;2023-04-24T08:17:40;10.00;99.90
12115;DHT22;6121;49.810;6.418;2023-04-24T08:20:07;10.40;99.90
12115;DHT22;6121;49.810;6.418;2023-04-24T08:22:39;10.30;99.90
12115;DHT22;6121;49.810;6.418;2023-04-24T08:25:06;10.60;99.90
12115;DHT22;6121;49.810;6.418;2023-04-24T08:27:33;10.80;99.90
12115;DHT22;6121;49.810;6.418;2023-04-24T08:29:58;10.90;99.90
12115;DHT22;6121;49.810;6.418;2023-04-24T08:32:26;10.80;99.90
12115;DHT22;6121;49.810;6.418;2023-04-24T08:34:56;10.40;99.90
12115;DHT22;6121;49.810;6.418;2023-04-24T08:37:23;10.30;99.90
12115;DHT22;6121;49.810;6.418;2023-04-24T08:39:50;10.30;99.90
12115;DHT22;6121;49.810;6.418;2023-04-24T08:42:17;10.20;99.90
12115;DHT22;6121;49.810;6.418;2023-04-24T08:44:43;10.30;99.90
12115;DHT22;6121;49.810;6.418;2023-04-24T08:47:10;10.70;99.90
12115;DHT22;6121;49.810;6.418;2023-04-24T08:49:37;11.00;99.90
12115;DHT22;6121;49.810;6.418;2023-04-24T08:52:04;11.20;99.90
12115;DHT22;6121;49.810;6.418;2023-04-24T08:54:31;11.10;99.90
12115;DHT22;6121;49.810;6.418;2023-04-24T08:57:02;10.90;99.90
12115;DHT22;6121;49.810;6.418;2023-04-24T08:59:30;10.60;99.90
12115;DHT22;6121;49.810;6.418;2023-04-24T09:01:57;10.70;99.90
12115;DHT22;6121;49.810;6.418;2023-04-24T09:04:24;10.60;99.90
12115;DHT22;6121;49.810;6.418;2023-04-24T09:06:52;10.40;99.90
12115;DHT22;6121;49.810;6.418;2023-04-24T09:09:21;10.60;99.90
12115;DHT22;6121;49.810;6.418;2023-04-24T09:11:49;10.70;99.90
12115;DHT22;6121;49.810;6.418;2023-04-24T09:14:16;11.20;99.90
12115;DHT22;6121;49.810;6.418;2023-04-24T09:16:42;11.80;99.90
12115;DHT22;6121;49.810;6.418;2023-04-24T09:19:08;12.50;99.90
12115;DHT22;6121;49.810;6.418;2023-04-24T09:21:35;13.40;99.90
12115;DHT22;6121;49.810;6.418;2023-04-24T09:24:05;13.50;99.90
12115;DHT22;6121;49.810;6.418;2023-04-24T09:26:35;13.60;99.90
12115;DHT22;6121;49.810;6.418;2023-04-24T09:29:02;13.40;99.90
12115;DHT22;6121;49.810;6.418;2023-04-24T09:31:29;12.90;99.90
12115;DHT22;6121;49.810;6.418;2023-04-24T09:34:03;12.90;99.90
12115;DHT22;6121;49.810;6.418;2023-04-24T09:36:36;13.10;99.90
12115;DHT22;6121;49.810;6.418;2023-04-24T09:39:14;12.90;99.90
12115;DHT22;6121;49.810;6.418;2023-04-24T09:44:22;12.80;99.90
12115;DHT22;6121;49.810;6.418;2023-04-24T09:46:57;12.60;99.90
12115;DHT22;6121;49.810;6.418;2023-04-24T09:49:30;12.30;99.90
12115;DHT22;6121;49.810;6.418;2023-04-24T09:52:09;12.10;99.90
12115;DHT22;6121;49.810;6.418;2023-04-24T09:54:35;12.30;99.90
12115;DHT22;6121;49.810;6.418;2023-04-24T09:57:07;12.10;99.90
12115;DHT22;6121;49.810;6.418;2023-04-24T09:59:33;12.40;99.90
12115;DHT22;6121;49.810;6.418;2023-04-24T10:02:01;12.60;99.90
12115;DHT22;6121;49.810;6.418;2023-04-24T10:04:28;12.50;99.90
12115;DHT22;6121;49.810;6.418;2023-04-24T10:06:56;13.30;99.90
12115;DHT22;6121;49.810;6.418;2023-04-24T10:09:31;14.00;99.90
12115;DHT22;6121;49.810;6.418;2023-04-24T10:11:59;14.60;99.90
12115;DHT22;6121;49.810;6.418;2023-04-24T10:14:27;14.50;99.90
12115;DHT22;6121;49.810;6.418;2023-04-24T10:16:55;13.80;99.90
12115;DHT22;6121;49.810;6.418;2023-04-24T10:19:25;13.60;99.90
12115;DHT22;6121;49.810;6.418;2023-04-24T10:21:52;13.20;99.90
12115;DHT22;6121;49.810;6.418;2023-04-24T10:24:21;13.00;99.90
12115;DHT22;6121;49.810;6.418;2023-04-24T10:26:47;12.40;99.90
12115;DHT22;6121;49.810;6.418;2023-04-24T10:29:16;12.80;99.90
12115;DHT22;6121;49.810;6.418;2023-04-24T10:31:42;12.70;99.90
12115;DHT22;6121;49.810;6.418;2023-04-24T10:34:11;12.20;99.90
12115;DHT22;6121;49.810;6.418;2023-04-24T10:36:40;12.30;99.90
12115;DHT22;6121;49.810;6.418;2023-04-24T10:39:09;12.80;99.90
12115;DHT22;6121;49.810;6.418;2023-04-24T10:41:37;13.20;99.90
12115;DHT22;6121;49.810;6.418;2023-04-24T10:46:40;13.10;99.90
12115;DHT22;6121;49.810;6.418;2023-04-24T10:49:08;12.80;99.90
12115;DHT22;6121;49.810;6.418;2023-04-24T10:51:51;12.90;99.90
12115;DHT22;6121;49.810;6.418;2023-04-24T10:54:33;13.00;99.90
12115;DHT22;6121;49.810;6.418;2023-04-24T10:59:44;12.90;99.90
12115;DHT22;6121;49.810;6.418;2023-04-24T11:02:09;13.10;99.90
12115;DHT22;6121;49.810;6.418;2023-04-24T11:04:35;13.10;99.90
12115;DHT22;6121;49.810;6.418;2023-04-24T11:07:05;13.20;99.90
12115;DHT22;6121;49.810;6.418;2023-04-24T11:09:32;12.90;99.90
12115;DHT22;6121;49.810;6.418;2023-04-24T11:12:08;12.70;99.90
12115;DHT22;6121;49.810;6.418;2023-04-24T11:17:31;12.60;99.90
12115;DHT22;6121;49.810;6.418;2023-04-24T11:20:09;12.40;99.90
12115;DHT22;6121;49.810;6.418;2023-04-24T11:22:36;12.50;99.90
12115;DHT22;6121;49.810;6.418;2023-04-24T11:25:03;12.60;99.90
12115;DHT22;6121;49.810;6.418;2023-04-24T11:27:39;12.50;99.90
12115;DHT22;6121;49.810;6.418;2023-04-24T11:30:05;12.40;99.90
12115;DHT22;6121;49.810;6.418;2023-04-24T11:37:43;12.90;99.90
12115;DHT22;6121;49.810;6.418;2023-04-24T11:40:13;13.10;99.90
12115;DHT22;6121;49.810;6.418;2023-04-24T11:42:43;13.00;99.90
12115;DHT22;6121;49.810;6.418;2023-04-24T11:45:11;12.70;99.90
12115;DHT22;6121;49.810;6.418;2023-04-24T11:47:38;12.70;99.90
12115;DHT22;6121;49.810;6.418;2023-04-24T11:50:06;12.90;99.90
12115;DHT22;6121;49.810;6.418;2023-04-24T11:52:33;12.80;99.90
12115;DHT22;6121;49.810;6.418;2023-04-24T11:55:02;12.80;99.90
12115;DHT22;6121;49.810;6.418;2023-04-24T11:57:29;12.90;99.90
12115;DHT22;6121;49.810;6.418;2023-04-24T12:00:01;12.70;99.90
12115;DHT22;6121;49.810;6.418;2023-04-24T12:02:43;12.60;99.90
12115;DHT22;6121;49.810;6.418;2023-04-24T12:05:09;13.00;99.90
12115;DHT22;6121;49.810;6.418;2023-04-24T12:07:41;12.90;99.90
12115;DHT22;6121;49.810;6.418;2023-04-24T12:10:10;13.10;99.90
12115;DHT22;6121;49.810;6.418;2023-04-24T12:12:36;13.10;99.90
12115;DHT22;6121;49.810;6.418;2023-04-24T12:15:08;13.40;99.90
12115;DHT22;6121;49.810;6.418;2023-04-24T12:17:35;13.10;99.90
12115;DHT22;6121;49.810;6.418;2023-04-24T12:20:07;13.20;99.90
12115;DHT22;6121;49.810;6.418;2023-04-24T12:22:50;13.40;99.90
12115;DHT22;6121;49.810;6.418;2023-04-24T12:25:18;13.40;99.90
12115;DHT22;6121;49.810;6.418;2023-04-24T12:27:45;13.70;99.90
12115;DHT22;6121;49.810;6.418;2023-04-24T12:30:16;13.70;99.90
12115;DHT22;6121;49.810;6.418;2023-04-24T12:32:47;13.50;99.90
12115;DHT22;6121;49.810;6.418;2023-04-24T12:35:21;13.40;99.90
12115;DHT22;6121;49.810;6.418;2023-04-24T12:37:47;13.40;99.90
12115;DHT22;6121;49.810;6.418;2023-04-24T12:40:16;13.40;99.90
12115;DHT22;6121;49.810;6.418;2023-04-24T12:42:45;13.20;99.90
12115;DHT22;6121;49.810;6.418;2023-04-24T12:45:12;13.30;99.90
12115;DHT22;6121;49.810;6.418;2023-04-24T12:47:38;13.10;99.90
12115;DHT22;6121;49.810;6.418;2023-04-24T12:50:06;13.20;99.90
12115;DHT22;6121;49.810;6.418;2023-04-24T12:52:33;13.20;99.90
12115;DHT22;6121;49.810;6.418;2023-04-24T12:55:00;13.80;99.90
12115;DHT22;6121;49.810;6.418;2023-04-24T12:57:28;13.70;99.90
12115;DHT22;6121;49.810;6.418;2023-04-24T12:59:56;13.80;99.90
12115;DHT22;6121;49.810;6.418;2023-04-24T13:02:23;13.70;99.90
12115;DHT22;6121;49.810;6.418;2023-04-24T13:04:49;13.70;99.90
12115;DHT22;6121;49.810;6.418;2023-04-24T13:07:16;13.80;99.90
12115;DHT22;6121;49.810;6.418;2023-04-24T13:09:42;13.90;99.90
12115;DHT22;6121;49.810;6.418;2023-04-24T13:12:09;14.20;99.90
12115;DHT22;6121;49.810;6.418;2023-04-24T13:14:36;14.20;99.90
12115;DHT22;6121;49.810;6.418;2023-04-24T13:17:03;14.10;99.90
12115;DHT22;6121;49.810;6.418;2023-04-24T13:19:34;14.10;99.90
12115;DHT22;6121;49.810;6.418;2023-04-24T13:22:00;14.00;99.90
12115;DHT22;6121;49.810;6.418;2023-04-24T13:24:26;13.90;99.90
12115;DHT22;6121;49.810;6.418;2023-04-24T13:26:53;13.60;99.90
12115;DHT22;6121;49.810;6.418;2023-04-24T13:29:19;13.70;99.90
12115;DHT22;6121;49.810;6.418;2023-04-24T13:31:46;13.90;99.90
12115;DHT22;6121;49.810;6.418;2023-04-24T13:34:13;13.70;99.90
12115;DHT22;6121;49.810;6.418;2023-04-24T13:36:38;14.00;99.90
12115;DHT22;6121;49.810;6.418;2023-04-24T13:39:05;14.30;99.90
12115;DHT22;6121;49.810;6.418;2023-04-24T13:41:40;14.60;99.90
12115;DHT22;6121;49.810;6.418;2023-04-24T13:44:06;14.50;99.90
12115;DHT22;6121;49.810;6.418;2023-04-24T13:46:32;14.70;99.90
12115;DHT22;6121;49.810;6.418;2023-04-24T13:48:58;14.70;99.90
12115;DHT22;6121;49.810;6.418;2023-04-24T13:51:25;14.60;99.90
12115;DHT22;6121;49.810;6.418;2023-04-24T13:53:53;14.60;99.90
12115;DHT22;6121;49.810;6.418;2023-04-24T13:56:19;14.50;99.90
12115;DHT22;6121;49.810;6.418;2023-04-24T13:58:45;14.40;99.90
12115;DHT22;6121;49.810;6.418;2023-04-24T14:01:12;14.10;99.90
12115;DHT22;6121;49.810;6.418;2023-04-24T14:03:38;14.10;99.90
12115;DHT22;6121;49.810;6.418;2023-04-24T14:06:04;14.20;99.90
12115;DHT22;6121;49.810;6.418;2023-04-24T14:08:32;14.00;99.90
12115;DHT22;6121;49.810;6.418;2023-04-24T14:10:58;13.90;99.90
12115;DHT22;6121;49.810;6.418;2023-04-24T14:13:24;13.40;99.90
12115;DHT22;6121;49.810;6.418;2023-04-24T14:15:50;13.00;99.90
12115;DHT22;6121;49.810;6.418;2023-04-24T14:18:16;13.00;99.90
12115;DHT22;6121;49.810;6.418;2023-04-24T14:20:42;13.20;99.90
12115;DHT22;6121;49.810;6.418;2023-04-24T14:23:09;13.40;99.90
12115;DHT22;6121;49.810;6.418;2023-04-24T14:25:35;13.60;99.90
12115;DHT22;6121;49.810;6.418;2023-04-24T14:28:01;13.50;99.90
12115;DHT22;6121;49.810;6.418;2023-04-24T14:30:27;13.30;99.90
12115;DHT22;6121;49.810;6.418;2023-04-24T14:32:53;13.30;99.90
12115;DHT22;6121;49.810;6.418;2023-04-24T14:35:19;13.10;99.90
12115;DHT22;6121;49.810;6.418;2023-04-24T14:37:45;13.00;99.90
12115;DHT22;6121;49.810;6.418;2023-04-24T14:40:11;13.00;99.90
12115;DHT22;6121;49.810;6.418;2023-04-24T14:42:38;12.50;99.90
12115;DHT22;6121;49.810;6.418;2023-04-24T14:45:07;12.20;99.90
12115;DHT22;6121;49.810;6.418;2023-04-24T14:47:33;12.10;99.90
12115;DHT22;6121;49.810;6.418;2023-04-24T14:49:59;12.30;99.90
12115;DHT22;6121;49.810;6.418;2023-04-24T14:52:25;12.30;99.90
12115;DHT22;6121;49.810;6.418;2023-04-24T14:54:51;12.60;99.90
12115;DHT22;6121;49.810;6.418;2023-04-24T14:57:19;13.00;99.90
12115;DHT22;6121;49.810;6.418;2023-04-24T14:59:45;13.10;99.90
12115;DHT22;6121;49.810;6.418;2023-04-24T15:02:11;12.90;99.90
12115;DHT22;6121;49.810;6.418;2023-04-24T15:04:36;13.10;99.90
12115;DHT22;6121;49.810;6.418;2023-04-24T15:07:02;13.20;99.90
12115;DHT22;6121;49.810;6.418;2023-04-24T15:09:28;13.40;99.90
12115;DHT22;6121;49.810;6.418;2023-04-24T15:11:54;13.10;99.90
12115;DHT22;6121;49.810;6.418;2023-04-24T15:14:20;13.00;99.90
12115;DHT22;6121;49.810;6.418;2023-04-24T15:16:45;12.70;99.90
12115;DHT22;6121;49.810;6.418;2023-04-24T15:19:11;12.80;99.90
12115;DHT22;6121;49.810;6.418;2023-04-24T15:21:37;12.50;99.90
12115;DHT22;6121;49.810;6.418;2023-04-24T15:24:05;12.30;99.90
12115;DHT22;6121;49.810;6.418;2023-04-24T15:26:31;12.20;99.90
12115;DHT22;6121;49.810;6.418;2023-04-24T15:28:57;12.00;99.90
12115;DHT22;6121;49.810;6.418;2023-04-24T15:31:23;12.10;99.90
12115;DHT22;6121;49.810;6.418;2023-04-24T15:33:52;11.90;99.90
12115;DHT22;6121;49.810;6.418;2023-04-24T15:36:18;11.90;99.90
12115;DHT22;6121;49.810;6.418;2023-04-24T15:38:44;12.00;99.90
12115;DHT22;6121;49.810;6.418;2023-04-24T15:41:11;12.00;99.90
12115;DHT22;6121;49.810;6.418;2023-04-24T15:43:37;11.90;99.90
12115;DHT22;6121;49.810;6.418;2023-04-24T15:46:04;12.20;99.90
12115;DHT22;6121;49.810;6.418;2023-04-24T15:48:31;12.30;99.90
12115;DHT22;6121;49.810;6.418;2023-04-24T15:50:57;12.40;99.90
12115;DHT22;6121;49.810;6.418;2023-04-24T15:53:24;12.60;99.90
12115;DHT22;6121;49.810;6.418;2023-04-24T15:55:51;12.70;99.90
12115;DHT22;6121;49.810;6.418;2023-04-24T15:58:19;12.70;99.90
12115;DHT22;6121;49.810;6.418;2023-04-24T16:00:46;12.60;99.90
12115;DHT22;6121;49.810;6.418;2023-04-24T16:03:12;12.70;99.90
12115;DHT22;6121;49.810;6.418;2023-04-24T16:05:39;12.80;99.90
12115;DHT22;6121;49.810;6.418;2023-04-24T16:08:05;13.00;99.90
12115;DHT22;6121;49.810;6.418;2023-04-24T16:10:31;12.80;99.90